TimeEDT,TemperatureF,Dew PointF,Humidity,Sea Level PressureIn,VisibilityMPH,Wind Direction,Wind SpeedMPH,Gust SpeedMPH,PrecipitationIn,Events,Conditions,WindDirDegrees,DateUTC
12:45 AM,62.6,57.2,82,30.04,9.0,Calm,Calm,-,N/A,,Overcast,0,2013-09-30 04:45:00
12:53 AM,61.0,57.9,90,30.03,9.0,Calm,Calm,-,N/A,,Overcast,0,2013-09-30 04:53:00
1:05 AM,60.8,57.2,88,30.04,8.0,Calm,Calm,-,N/A,,Overcast,0,2013-09-30 05:05:00
1:53 AM,61.0,57.9,90,30.02,8.0,Calm,Calm,-,N/A,,Overcast,0,2013-09-30 05:53:00
2:53 AM,57.9,55.9,93,30.02,4.0,Calm,Calm,-,N/A,,Clear,0,2013-09-30 06:53:00
3:10 AM,57.2,55.4,94,30.03,2.5,ESE,3.5,-,N/A,,Clear,120,2013-09-30 07:10:00
3:17 AM,57.2,55.4,94,30.03,3.0,SE,4.6,-,N/A,,Scattered Clouds,130,2013-09-30 07:17:00
3:53 AM,59.0,55.9,90,30.02,5.0,Calm,Calm,-,N/A,,Overcast,0,2013-09-30 07:53:00
4:53 AM,57.9,55.9,93,30.02,5.0,ESE,3.5,-,N/A,,Overcast,120,2013-09-30 08:53:00
5:53 AM,59.0,57.0,93,30.02,5.0,Calm,Calm,-,N/A,,Overcast,0,2013-09-30 09:53:00
6:53 AM,59.0,55.9,90,30.04,4.0,ESE,3.5,-,N/A,,Overcast,120,2013-09-30 10:53:00
7:39 AM,57.2,55.4,94,30.05,2.5,ESE,3.5,-,N/A,,Overcast,120,2013-09-30 11:39:00
7:49 AM,59.0,57.2,94,30.05,3.0,Calm,Calm,-,N/A,,Overcast,0,2013-09-30 11:49:00
7:53 AM,59.0,57.0,93,30.05,3.0,Calm,Calm,-,N/A,,Overcast,0,2013-09-30 11:53:00
8:53 AM,62.1,57.9,86,30.06,6.0,Calm,Calm,-,N/A,,Mostly Cloudy,0,2013-09-30 12:53:00
9:53 AM,66.0,57.0,73,30.05,10.0,SW,6.9,-,N/A,,Overcast,230,2013-09-30 13:53:00
10:53 AM,64.9,55.9,73,30.06,10.0,SW,3.5,-,N/A,,Overcast,220,2013-09-30 14:53:00
11:53 AM,66.0,57.0,73,30.05,10.0,South,8.1,-,N/A,,Overcast,190,2013-09-30 15:53:00
12:41 PM,66.2,55.4,68,30.05,10.0,SW,3.5,-,N/A,,Overcast,230,2013-09-30 16:41:00
12:53 PM,66.0,57.0,73,30.04,10.0,Variable,3.5,-,N/A,,Overcast,0,2013-09-30 16:53:00
1:53 PM,64.9,57.0,75,30.04,10.0,SW,10.4,-,N/A,,Overcast,220,2013-09-30 17:53:00
2:53 PM,63.0,57.0,81,30.03,10.0,SSW,4.6,-,N/A,,Overcast,210,2013-09-30 18:53:00
3:53 PM,64.0,57.9,80,30.02,10.0,South,4.6,-,N/A,,Overcast,180,2013-09-30 19:53:00
4:36 PM,66.2,57.2,73,30.02,10.0,Calm,Calm,-,N/A,,Overcast,0,2013-09-30 20:36:00
4:53 PM,66.0,57.9,75,30.01,10.0,South,3.5,-,N/A,,Overcast,180,2013-09-30 20:53:00
5:53 PM,66.0,57.9,75,30.00,10.0,Calm,Calm,-,N/A,,Overcast,0,2013-09-30 21:53:00
6:53 PM,64.9,57.9,78,30.01,10.0,Calm,Calm,-,N/A,,Overcast,0,2013-09-30 22:53:00
7:53 PM,61.0,57.9,90,30.02,10.0,Calm,Calm,-,N/A,,Mostly Cloudy,0,2013-09-30 23:53:00
8:53 PM,59.0,57.0,93,30.03,9.0,SE,3.5,-,N/A,,Partly Cloudy,140,2013-10-01 00:53:00
9:53 PM,61.0,57.9,90,30.03,5.0,SE,3.5,-,N/A,,Overcast,130,2013-10-01 01:53:00
10:53 PM,60.1,57.0,90,30.03,6.0,SE,3.5,-,N/A,,Scattered Clouds,130,2013-10-01 02:53:00
11:53 PM,57.9,55.0,90,30.03,5.0,ESE,3.5,-,N/A,,Clear,120,2013-10-01 03:53:00